Alixel 2 — FGAP — position and weather

sailwx.info

Track history (hours):
 
Tides and Currents Weather Stations Pressure Air Temp Water Temp Dewpoint Dewpoint Depression Visibility Wind Speed Wind Dir Waves Ship Positions

Alixel 2

Last reported at 2017-Sep-22 01:59 UTC. Time now 2017-Sep-22 10:06 UTC.
Position N 47°48' W 003°56'.

Length 14 m.

Type: Fishing. MMSI: 227962000.

Date/timePositionNaut miles runAvg speedWind from/ knotsBaromVisibWave heightAir tempDewpointWater temp
2017-Sep-22 01:59N 47°48' W 003°56'3 2.4
2017-Sep-22 00:38N 47°51' W 003°56'7 8.0
2017-Sep-21 23:43N 47°44' W 003°55'5 1.9
2017-Sep-21 20:58N 47°39' W 003°51'0 0.2
2017-Sep-21 19:48N 47°39' W 003°52'15 1.5
2017-Sep-21 09:44N 47°26' W 003°40'1 3.5
2017-Sep-21 09:29N 47°26' W 003°39'1 2.8
2017-Sep-21 09:00N 47°28' W 003°40'2 3.1
2017-Sep-21 08:28N 47°28' W 003°42'2 2.7
2017-Sep-21 07:50N 47°29' W 003°42'1 3.0
2017-Sep-21 07:28N 47°30' W 003°43'2 3.7
2017-Sep-21 07:00N 47°32' W 003°41'2 3.7
2017-Sep-21 06:30N 47°32' W 003°38'2 3.5
2017-Sep-21 06:00N 47°33' W 003°36'1 1.7
2017-Sep-21 05:30N 47°34' W 003°36'2 3.3
2017-Sep-21 05:00N 47°35' W 003°38'3 5.9
2017-Sep-21 04:30N 47°37' W 003°42'13 2.4
2017-Sep-20 23:07N 47°46' W 003°55'2 5.8
2017-Sep-20 22:48N 47°44' W 003°55'24 3.5
2017-Sep-20 15:45N 47°22' W 003°41'1 2.0
2017-Sep-20 15:16N 47°21' W 003°40'1 2.2
2017-Sep-20 14:51N 47°21' W 003°41'1 0.6
2017-Sep-20 13:45N 47°21' W 003°40'1 3.5
2017-Sep-20 13:27N 47°20' W 003°39'2 3.4
2017-Sep-20 12:53N 47°20' W 003°42'0 0.4
2017-Sep-20 11:44N 47°20' W 003°41'1 3.2
2017-Sep-20 11:29N 47°20' W 003°40'1 1.7
2017-Sep-20 10:57N 47°21' W 003°40'0 0.4
2017-Sep-20 10:17N 47°20' W 003°40'1 3.3
2017-Sep-20 10:00N 47°21' W 003°40'2 1.3
2017-Sep-20 08:47N 47°20' W 003°39'1 1.7
2017-Sep-20 08:26N 47°20' W 003°39'0 0.7
2017-Sep-20 07:46N 47°20' W 003°40'1 3.0
2017-Sep-20 07:29N 47°21' W 003°41'1 1.5
2017-Sep-20 06:37N 47°20' W 003°39'1 0.9
2017-Sep-20 05:37N 47°21' W 003°40'1 3.7
2017-Sep-20 05:28N 47°21' W 003°40'17 5.9
2017-Sep-20 02:38N 47°36' W 003°52'7 8.5
2017-Sep-20 01:48N 47°43' W 003°55'7 8.4
2017-Sep-20 00:58N 47°50' W 003°56'4 0.1
2017-Sep-18 17:58N 47°45' W 003°56'15 7.7
2017-Sep-18 16:05N 47°32' W 003°49'0 2.1
2017-Sep-18 16:00N 47°31' W 003°49'1 2.5
2017-Sep-18 15:30N 47°31' W 003°50'0 1.0
2017-Sep-18 15:00N 47°31' W 003°50'2 3.4
2017-Sep-18 14:29N 47°32' W 003°52'2 3.5
2017-Sep-18 13:57N 47°32' W 003°54'2 3.8
2017-Sep-18 13:30N 47°33' W 003°57'2 0.7
2017-Sep-18 11:05N 47°31' W 003°55'0 3.5
2017-Sep-18 11:00N 47°31' W 003°55'5 2.9
2017-Sep-18 09:18N 47°27' W 003°51'2 3.5
2017-Sep-18 08:53N 47°28' W 003°52'1 2.1
2017-Sep-18 08:25N 47°29' W 003°51'2 3.7
2017-Sep-18 07:59N 47°29' W 003°49'1 2.6
2017-Sep-18 07:28N 47°28' W 003°48'2 3.4
2017-Sep-18 06:59N 47°28' W 003°50'2 3.3
2017-Sep-18 06:15N 47°30' W 003°53'1 3.4
2017-Sep-18 06:00N 47°30' W 003°55'2 3.2
2017-Sep-18 05:30N 47°31' W 003°57'19 4.8
2017-Sep-18 01:38N 47°49' W 003°56'2 1.1
2017-Sep-17 23:33N 47°52' W 003°55'4 7.0
2017-Sep-17 22:58N 47°48' W 003°56'10 7.2
2017-Sep-17 21:38N 47°38' W 003°54'10 2.7
2017-Sep-17 18:08N 47°29' W 003°52'1 3.3
2017-Sep-17 17:59N 47°29' W 003°52'2 3.3
2017-Sep-17 17:27N 47°30' W 003°55'21 0.5
2017-Sep-15 21:33N 47°51' W 003°56'20 1.5
2017-Sep-15 08:34N 47°32' W 003°48'1 2.6
2017-Sep-15 08:13N 47°32' W 003°47'1 3.5
2017-Sep-15 07:59N 47°32' W 003°46'2 3.3
2017-Sep-15 07:30N 47°33' W 003°44'2 3.1
2017-Sep-15 07:00N 47°34' W 003°42'1 2.7
2017-Sep-15 06:29N 47°36' W 003°43'2 3.3
2017-Sep-15 05:51N 47°38' W 003°44'2 3.2
2017-Sep-15 05:17N 47°38' W 003°46'1 3.4
2017-Sep-15 04:58N 47°39' W 003°46'5 0.5
2017-Sep-14 20:22N 47°35' W 003°47'1 3.0
2017-Sep-14 19:57N 47°34' W 003°46'4 3.6
2017-Sep-14 18:50N 47°32' W 003°52'1 3.8
2017-Sep-14 18:28N 47°32' W 003°54'0 0.1
2017-Sep-14 13:21N 47°32' W 003°54'2 3.4
2017-Sep-14 12:55N 47°32' W 003°52'2 3.5
2017-Sep-14 12:28N 47°32' W 003°49'1 0.1
2017-Sep-14 07:49N 47°32' W 003°49'1 3.1
2017-Sep-14 07:25N 47°33' W 003°47'2 3.2
2017-Sep-14 06:53N 47°34' W 003°45'1 2.7
2017-Sep-14 06:22N 47°35' W 003°45'10 4.1
2017-Sep-14 03:59N 47°43' W 003°54'8 7.5
2017-Sep-14 02:58N 47°50' W 003°56'1 0.0
2017-Sep-12 23:43N 47°51' W 003°56'12 0.7
2017-Sep-12 04:38N 47°39' W 003°51'6 7.0
2017-Sep-12 03:48N 47°44' W 003°55'6 7.3
2017-Sep-12 02:58N 47°50' W 003°56'  
Track history (hours):
 
Tides and Currents Weather Stations Pressure Air Temp Water Temp Dewpoint Dewpoint Depression Visibility Wind Speed Wind Dir Waves Ship Positions

Alixel 2

Last reported at 2017-Sep-22 01:59 UTC. Time now 2017-Sep-22 10:06 UTC.
Position N 47°48' W 003°56'.

Length 14 m.

Type: Fishing. MMSI: 227962000.

Date/timePositionNaut miles runAvg speedWind from/ knotsBaromVisibWave heightAir tempDewpointWater temp
2017-Sep-22 01:59N 47°48' W 003°56'3 2.4
2017-Sep-22 00:38N 47°51' W 003°56'7 8.0
2017-Sep-21 23:43N 47°44' W 003°55'5 1.9
2017-Sep-21 20:58N 47°39' W 003°51'0 0.2
2017-Sep-21 19:48N 47°39' W 003°52'15 1.5
2017-Sep-21 09:44N 47°26' W 003°40'1 3.5
2017-Sep-21 09:29N 47°26' W 003°39'1 2.8
2017-Sep-21 09:00N 47°28' W 003°40'2 3.1
2017-Sep-21 08:28N 47°28' W 003°42'2 2.7
2017-Sep-21 07:50N 47°29' W 003°42'1 3.0
2017-Sep-21 07:28N 47°30' W 003°43'2 3.7
2017-Sep-21 07:00N 47°32' W 003°41'2 3.7
2017-Sep-21 06:30N 47°32' W 003°38'2 3.5
2017-Sep-21 06:00N 47°33' W 003°36'1 1.7
2017-Sep-21 05:30N 47°34' W 003°36'2 3.3
2017-Sep-21 05:00N 47°35' W 003°38'3 5.9
2017-Sep-21 04:30N 47°37' W 003°42'13 2.4
2017-Sep-20 23:07N 47°46' W 003°55'2 5.8
2017-Sep-20 22:48N 47°44' W 003°55'24 3.5
2017-Sep-20 15:45N 47°22' W 003°41'1 2.0
2017-Sep-20 15:16N 47°21' W 003°40'1 2.2
2017-Sep-20 14:51N 47°21' W 003°41'1 0.6
2017-Sep-20 13:45N 47°21' W 003°40'1 3.5
2017-Sep-20 13:27N 47°20' W 003°39'2 3.4
2017-Sep-20 12:53N 47°20' W 003°42'0 0.4
2017-Sep-20 11:44N 47°20' W 003°41'1 3.2
2017-Sep-20 11:29N 47°20' W 003°40'1 1.7
2017-Sep-20 10:57N 47°21' W 003°40'0 0.4
2017-Sep-20 10:17N 47°20' W 003°40'1 3.3
2017-Sep-20 10:00N 47°21' W 003°40'2 1.3
2017-Sep-20 08:47N 47°20' W 003°39'1 1.7
2017-Sep-20 08:26N 47°20' W 003°39'0 0.7
2017-Sep-20 07:46N 47°20' W 003°40'1 3.0
2017-Sep-20 07:29N 47°21' W 003°41'1 1.5
2017-Sep-20 06:37N 47°20' W 003°39'1 0.9
2017-Sep-20 05:37N 47°21' W 003°40'1 3.7
2017-Sep-20 05:28N 47°21' W 003°40'17 5.9
2017-Sep-20 02:38N 47°36' W 003°52'7 8.5
2017-Sep-20 01:48N 47°43' W 003°55'7 8.4
2017-Sep-20 00:58N 47°50' W 003°56'4 0.1
2017-Sep-18 17:58N 47°45' W 003°56'15 7.7
2017-Sep-18 16:05N 47°32' W 003°49'0 2.1
2017-Sep-18 16:00N 47°31' W 003°49'1 2.5
2017-Sep-18 15:30N 47°31' W 003°50'0 1.0
2017-Sep-18 15:00N 47°31' W 003°50'2 3.4
2017-Sep-18 14:29N 47°32' W 003°52'2 3.5
2017-Sep-18 13:57N 47°32' W 003°54'2 3.8
2017-Sep-18 13:30N 47°33' W 003°57'2 0.7
2017-Sep-18 11:05N 47°31' W 003°55'0 3.5
2017-Sep-18 11:00N 47°31' W 003°55'5 2.9
2017-Sep-18 09:18N 47°27' W 003°51'2 3.5
2017-Sep-18 08:53N 47°28' W 003°52'1 2.1
2017-Sep-18 08:25N 47°29' W 003°51'2 3.7
2017-Sep-18 07:59N 47°29' W 003°49'1 2.6
2017-Sep-18 07:28N 47°28' W 003°48'2 3.4
2017-Sep-18 06:59N 47°28' W 003°50'2 3.3
2017-Sep-18 06:15N 47°30' W 003°53'1 3.4
2017-Sep-18 06:00N 47°30' W 003°55'2 3.2
2017-Sep-18 05:30N 47°31' W 003°57'19 4.8
2017-Sep-18 01:38N 47°49' W 003°56'2 1.1
2017-Sep-17 23:33N 47°52' W 003°55'4 7.0
2017-Sep-17 22:58N 47°48' W 003°56'10 7.2
2017-Sep-17 21:38N 47°38' W 003°54'10 2.7
2017-Sep-17 18:08N 47°29' W 003°52'1 3.3
2017-Sep-17 17:59N 47°29' W 003°52'2 3.3
2017-Sep-17 17:27N 47°30' W 003°55'21 0.5
2017-Sep-15 21:33N 47°51' W 003°56'20 1.5
2017-Sep-15 08:34N 47°32' W 003°48'1 2.6
2017-Sep-15 08:13N 47°32' W 003°47'1 3.5
2017-Sep-15 07:59N 47°32' W 003°46'2 3.3
2017-Sep-15 07:30N 47°33' W 003°44'2 3.1
2017-Sep-15 07:00N 47°34' W 003°42'1 2.7
2017-Sep-15 06:29N 47°36' W 003°43'2 3.3
2017-Sep-15 05:51N 47°38' W 003°44'2 3.2
2017-Sep-15 05:17N 47°38' W 003°46'1 3.4
2017-Sep-15 04:58N 47°39' W 003°46'5 0.5
2017-Sep-14 20:22N 47°35' W 003°47'1 3.0
2017-Sep-14 19:57N 47°34' W 003°46'4 3.6
2017-Sep-14 18:50N 47°32' W 003°52'1 3.8
2017-Sep-14 18:28N 47°32' W 003°54'0 0.1
2017-Sep-14 13:21N 47°32' W 003°54'2 3.4
2017-Sep-14 12:55N 47°32' W 003°52'2 3.5
2017-Sep-14 12:28N 47°32' W 003°49'1 0.1
2017-Sep-14 07:49N 47°32' W 003°49'1 3.1
2017-Sep-14 07:25N 47°33' W 003°47'2 3.2
2017-Sep-14 06:53N 47°34' W 003°45'1 2.7
2017-Sep-14 06:22N 47°35' W 003°45'10 4.1
2017-Sep-14 03:59N 47°43' W 003°54'8 7.5
2017-Sep-14 02:58N 47°50' W 003°56'1 0.0
2017-Sep-12 23:43N 47°51' W 003°56'12 0.7
2017-Sep-12 04:38N 47°39' W 003°51'6 7.0
2017-Sep-12 03:48N 47°44' W 003°55'6 7.3
2017-Sep-12 02:58N 47°50' W 003°56'  

Dump ship's entire track history